Time;durP1;ratioP1;P1;durP2;ratioP2;P2;SDS_P1;SDS_P2;PMS_P1;PMS_P2;Temp;Humidity;BMP_temperature;BMP_pressure;BME280_temperature;BME280_humidity;BME280_pressure;Samples;Min_cycle;Max_cycle;Signal;HPM_P1;HPM_P2
2023/06/14 00:00:42;;;;;;;;;21.25;20.25;;;;;26.34;36.42;100551.00;2089109;28;46250;-63
2023/06/14 00:01:45;;;;;;;;;22.40;22.20;;;;;26.31;36.24;100545.84;2088302;28;45977;-62
2023/06/14 00:02:45;;;;;;;;;26.00;24.60;;;;;26.31;36.68;100548.56;2092674;28;46791;-62
2023/06/14 00:03:47;;;;;;;;;20.50;20.50;;;;;26.30;36.01;100549.56;2094686;28;46567;-60
2023/06/14 00:04:48;;;;;;;;;22.00;20.80;;;;;26.27;36.63;100547.09;2092443;28;46638;-61
2023/06/14 00:05:48;;;;;;;;;22.25;22.25;;;;;26.28;36.38;100551.53;2089070;28;45780;-62
2023/06/14 00:06:50;;;;;;;;;21.75;20.75;;;;;26.26;36.74;100548.09;2091662;28;46474;-61
2023/06/14 00:07:53;;;;;;;;;21.40;20.40;;;;;26.24;36.34;100542.78;2090896;28;46502;-63
2023/06/14 00:08:54;;;;;;;;;23.20;22.80;;;;;26.24;36.20;100550.94;2090126;28;46823;-61
2023/06/14 00:09:54;;;;;;;;;22.00;20.25;;;;;26.23;36.97;100553.81;2091690;28;46876;-61
2023/06/14 00:10:54;;;;;;;;;19.00;18.50;;;;;26.22;36.26;100547.50;2089388;28;46690;-62
2023/06/14 00:11:55;;;;;;;;;23.50;20.50;;;;;26.22;36.88;100549.38;2086633;28;46133;-60
2023/06/14 00:12:55;;;;;;;;;23.00;23.00;;;;;26.21;36.26;100545.78;2087436;28;46622;-62
2023/06/14 00:13:56;;;;;;;;;23.50;22.00;;;;;26.21;36.25;100544.94;2089051;28;46903;-60
2023/06/14 00:14:57;;;;;;;;;26.50;26.25;;;;;26.19;36.49;100550.50;2091551;28;47910;-61
2023/06/14 00:15:57;;;;;;;;;24.40;24.40;;;;;26.19;36.79;100546.94;2090239;28;46571;-61
2023/06/14 00:16:58;;;;;;;;;23.50;22.50;;;;;26.18;36.39;100550.66;2088965;28;46414;-61
2023/06/14 00:18:01;;;;;;;;;23.60;21.80;;;;;26.18;37.04;100551.50;2091827;28;46829;-61
2023/06/14 00:19:05;;;;;;;;;23.20;22.20;;;;;26.18;37.11;100547.94;2089621;28;46372;-62
2023/06/14 00:20:06;;;;;;;;;19.20;18.80;;;;;26.17;37.02;100557.06;2089900;28;46433;-62
2023/06/14 00:21:06;;;;;;;;;24.20;22.20;;;;;26.14;36.54;100555.47;2090802;28;47085;-62
2023/06/14 00:22:07;;;;;;;;;23.25;21.25;;;;;26.13;37.04;100552.91;2088692;28;48303;-62
2023/06/14 00:23:07;;;;;;;;;24.75;23.50;;;;;26.10;37.25;100549.47;2091097;28;46388;-61
2023/06/14 00:24:08;;;;;;;;;21.50;20.25;;;;;26.08;37.17;100546.03;2091765;28;46607;-60
2023/06/14 00:25:08;;;;;;;;;24.75;22.25;;;;;26.06;36.43;100547.16;2088168;28;46265;-63
2023/06/14 00:26:08;;;;;;;;;20.75;18.25;;;;;26.05;36.98;100545.44;2091216;28;46863;-62
2023/06/14 00:27:09;;;;;;;;;29.25;27.25;;;;;26.03;36.81;100544.69;2090297;28;46526;-62
2023/06/14 00:28:10;;;;;;;;;23.00;21.75;;;;;26.03;36.68;100555.56;2090132;28;46411;-62
2023/06/14 00:29:10;;;;;;;;;21.50;21.50;;;;;26.00;37.35;100554.00;2082773;28;46248;-62
2023/06/14 00:30:11;;;;;;;;;19.25;19.25;;;;;25.99;37.15;100544.13;2080079;28;46650;-62
2023/06/14 00:31:12;;;;;;;;;20.75;20.00;;;;;25.99;36.59;100548.69;2070628;28;46763;-61
2023/06/14 00:32:12;;;;;;;;;20.00;19.25;;;;;25.96;37.28;100546.25;2071330;28;46177;-59
2023/06/14 00:33:12;;;;;;;;;23.75;23.25;;;;;25.95;37.28;100553.56;2088252;28;45495;-61
2023/06/14 00:34:13;;;;;;;;;27.00;25.00;;;;;25.92;37.51;100556.56;2091388;28;46435;-63
2023/06/14 00:35:14;;;;;;;;;27.00;23.00;;;;;25.91;37.44;100556.66;2088368;28;46439;-61
2023/06/14 00:36:15;;;;;;;;;20.20;19.00;;;;;25.91;37.32;100556.66;2089696;28;46928;-61
2023/06/14 00:37:15;;;;;;;;;20.25;19.25;;;;;25.89;37.09;100558.66;2090213;28;46702;-62
2023/06/14 00:38:16;;;;;;;;;21.50;21.50;;;;;25.87;37.14;100561.50;2089248;28;47191;-64
2023/06/14 00:39:16;;;;;;;;;22.00;20.50;;;;;25.85;36.88;100560.78;2090426;28;46830;-62
2023/06/14 00:40:17;;;;;;;;;20.00;19.25;;;;;25.85;37.24;100558.06;2091283;28;45025;-62
2023/06/14 00:41:17;;;;;;;;;14.00;14.00;;;;;25.83;37.57;100560.06;2088676;28;46712;-61
2023/06/14 00:42:25;;;;;;;;;19.00;16.75;;;;;25.81;37.54;100559.34;2091587;28;46483;-60
2023/06/14 00:43:25;;;;;;;;;19.25;19.25;;;;;25.79;37.72;100561.31;2084170;28;46202;-62
2023/06/14 00:44:26;;;;;;;;;19.25;18.50;;;;;25.76;37.20;100562.47;2089220;28;46707;-60
2023/06/14 00:45:26;;;;;;;;;19.25;19.25;;;;;25.74;37.81;100559.00;2090980;28;45712;-61
2023/06/14 00:46:26;;;;;;;;;20.25;20.25;;;;;25.74;37.20;100560.88;2088798;28;46392;-60
2023/06/14 00:47:27;;;;;;;;;16.00;16.00;;;;;25.71;37.76;100564.72;2088492;28;46826;-59
2023/06/14 00:48:28;;;;;;;;;18.00;18.00;;;;;25.71;37.56;100562.00;2090939;28;46263;-59
2023/06/14 00:49:29;;;;;;;;;20.00;18.80;;;;;25.70;37.51;100564.88;2088793;28;47041;-59
2023/06/14 00:50:32;;;;;;;;;13.75;12.50;;;;;25.68;38.02;100564.97;2090620;28;46416;-58
2023/06/14 00:51:32;;;;;;;;;19.00;16.40;;;;;25.67;38.15;100563.25;2090506;28;47208;-61
2023/06/14 00:52:33;;;;;;;;;19.00;19.00;;;;;25.66;38.21;100564.22;2087910;28;46451;-59
2023/06/14 00:53:36;;;;;;;;;23.75;20.75;;;;;25.65;37.91;100562.50;2088859;28;46904;-61
2023/06/14 00:54:36;;;;;;;;;22.20;20.20;;;;;25.65;38.08;100562.50;2088958;28;46378;-61
2023/06/14 00:55:37;;;;;;;;;21.00;18.75;;;;;25.63;38.27;100561.78;2089127;28;46819;-60
2023/06/14 00:56:38;;;;;;;;;17.75;17.00;;;;;25.63;37.78;100566.34;2089254;28;46087;-60
2023/06/14 00:57:39;;;;;;;;;21.80;21.00;;;;;25.61;38.21;100560.19;2088469;28;47065;-60
2023/06/14 00:58:41;;;;;;;;;23.00;23.00;;;;;25.60;38.07;100561.19;2089152;28;47062;-62
2023/06/14 00:59:45;;;;;;;;;23.80;22.00;;;;;25.57;37.93;100562.31;2089559;28;46390;-60
2023/06/14 01:00:45;;;;;;;;;19.20;18.40;;;;;25.54;37.79;100568.03;2088731;28;46746;-60
2023/06/14 01:01:46;;;;;;;;;21.25;21.00;;;;;25.52;38.32;100565.41;2088626;28;45558;-60
2023/06/14 01:02:46;;;;;;;;;19.75;19.75;;;;;25.50;38.33;100566.56;2104927;28;46371;-60
2023/06/14 01:03:47;;;;;;;;;21.25;18.75;;;;;25.47;38.50;100564.97;2090867;28;46662;-59
2023/06/14 01:04:50;;;;;;;;;19.75;19.75;;;;;25.47;38.04;100562.25;2083109;28;46771;-60
2023/06/14 01:06:02;;;;;;;;;19.80;19.80;;;;;25.45;38.39;100563.38;2105160;28;46409;-61
2023/06/14 01:07:13;;;;;;;;;21.40;21.40;;;;;25.43;38.52;100562.66;2083036;28;46423;-61
2023/06/14 01:08:39;;;;;;;;;23.00;23.00;;;;;25.41;38.33;100573.66;2088069;28;46623;-59
2023/06/14 01:10:20;;;;;;;;;18.40;18.20;;;;;25.40;38.67;100568.34;2088357;28;46319;-59
2023/06/14 01:11:31;;;;;;;;;20.00;18.60;;;;;25.37;38.66;100568.59;2086839;28;46293;-61
2023/06/14 01:12:54;;;;;;;;;18.80;17.80;;;;;25.35;38.55;100565.16;2080069;28;46894;-62
2023/06/14 01:13:55;;;;;;;;;23.20;21.40;;;;;25.33;38.27;100565.28;2071295;28;46758;-60
2023/06/14 01:14:57;;;;;;;;;18.60;18.60;;;;;25.31;38.78;100567.28;2081046;28;46627;-60
2023/06/14 01:15:58;;;;;;;;;22.60;20.40;;;;;25.29;38.16;100558.41;2087980;28;46555;-61
2023/06/14 01:17:00;;;;;;;;;19.20;19.20;;;;;25.28;38.44;100566.66;2085927;28;46366;-60
2023/06/14 01:18:04;;;;;;;;;18.80;17.80;;;;;25.26;38.44;100555.06;2087596;28;46780;-60
2023/06/14 01:19:05;;;;;;;;;20.00;20.00;;;;;25.26;38.55;100557.78;2078284;28;46515;-61
2023/06/14 01:20:09;;;;;;;;;20.20;20.20;;;;;25.24;38.93;100561.50;2075851;28;46400;-61
2023/06/14 01:21:28;;;;;;;;;19.40;19.40;;;;;25.22;38.90;100562.63;2086556;28;46538;-61
2023/06/14 01:22:28;;;;;;;;;18.20;18.20;;;;;25.20;38.69;100562.78;2077985;28;46987;-60
2023/06/14 01:23:32;;;;;;;;;17.25;17.25;;;;;25.17;38.69;100564.91;2078678;28;46272;-59
2023/06/14 01:24:34;;;;;;;;;17.40;16.80;;;;;25.15;38.59;100562.28;2079595;28;46669;-61
2023/06/14 01:25:36;;;;;;;;;20.00;19.00;;;;;25.13;39.12;100563.41;2079089;28;46334;-59
2023/06/14 01:26:37;;;;;;;;;21.80;20.60;;;;;25.12;38.73;100567.13;2079251;28;46438;-61
2023/06/14 01:27:38;;;;;;;;;21.80;19.00;;;;;25.08;39.10;100569.25;2078733;28;46945;-60
2023/06/14 01:28:38;;;;;;;;;18.25;18.25;;;;;25.09;38.75;100572.81;2079089;28;45994;-59
2023/06/14 01:29:39;;;;;;;;;21.50;20.75;;;;;25.07;39.09;100567.53;2079420;28;46631;-61
2023/06/14 01:30:47;;;;;;;;;20.00;18.00;;;;;25.07;38.83;100569.38;2079463;28;46655;-60
2023/06/14 01:31:49;;;;;;;;;16.40;16.40;;;;;25.04;39.48;100566.94;2077975;28;46669;-64
2023/06/14 01:32:50;;;;;;;;;19.00;17.80;;;;;25.02;38.95;100572.47;2071561;28;46099;-61
2023/06/14 01:33:51;;;;;;;;;20.50;20.00;;;;;25.00;38.83;100568.13;2080664;28;47270;-60
2023/06/14 01:34:51;;;;;;;;;20.80;19.20;;;;;24.98;38.94;100568.25;2078914;28;46460;-62
2023/06/14 01:35:53;;;;;;;;;20.50;18.25;;;;;24.98;39.02;100570.97;2079368;28;46423;-61
2023/06/14 01:36:54;;;;;;;;;18.40;17.40;;;;;24.97;39.07;100568.38;2079420;28;46762;-61
2023/06/14 01:37:56;;;;;;;;;16.00;16.00;;;;;24.97;39.37;100568.38;2076483;28;46330;-63
2023/06/14 01:38:59;;;;;;;;;18.20;17.60;;;;;24.95;39.31;100565.81;2071181;28;46620;-61
2023/06/14 01:40:00;;;;;;;;;17.60;17.40;;;;;24.94;39.10;100570.38;2079090;28;46544;-62
2023/06/14 01:41:01;;;;;;;;;21.00;19.50;;;;;24.93;39.18;100563.22;2079002;28;46907;-62
2023/06/14 01:42:02;;;;;;;;;17.60;17.60;;;;;24.93;39.43;100568.66;2079093;28;46722;-62
2023/06/14 01:43:04;;;;;;;;;18.00;18.00;;;;;24.93;39.29;100565.94;2078963;28;47039;-60
2023/06/14 01:44:06;;;;;;;;;18.40;16.20;;;;;24.92;39.12;100564.22;2078949;28;46558;-61
2023/06/14 01:45:09;;;;;;;;;20.20;19.60;;;;;24.92;39.07;100561.50;2079075;28;46596;-59
2023/06/14 01:46:10;;;;;;;;;20.20;19.00;;;;;24.90;39.11;100563.50;2078985;28;46726;-61
2023/06/14 01:47:12;;;;;;;;;20.00;20.00;;;;;24.90;39.54;100566.22;2079161;28;46389;-61
2023/06/14 01:48:12;;;;;;;;;15.60;15.60;;;;;24.89;39.07;100559.03;2078653;28;46647;-61
2023/06/14 01:49:13;;;;;;;;;19.75;19.75;;;;;24.89;39.24;100567.16;2082075;28;46028;-59
2023/06/14 01:50:13;;;;;;;;;16.25;16.25;;;;;24.87;39.17;100560.16;2088136;28;46740;-60
2023/06/14 01:51:13;;;;;;;;;19.00;18.75;;;;;24.86;39.31;100566.56;2086865;28;46203;-62
2023/06/14 01:52:13;;;;;;;;;18.75;18.75;;;;;24.86;39.38;100563.84;2087148;28;46529;-61
2023/06/14 01:53:14;;;;;;;;;19.50;17.75;;;;;24.84;39.51;100572.13;2088130;28;46629;-64
2023/06/14 01:54:14;;;;;;;;;18.25;18.00;;;;;24.82;39.43;100563.25;2088301;28;46205;-60
2023/06/14 01:55:17;;;;;;;;;21.25;19.50;;;;;24.80;39.38;100573.38;2087521;28;46672;-61
2023/06/14 01:56:18;;;;;;;;;19.80;17.00;;;;;24.79;39.37;100563.53;2088311;28;46944;-61
2023/06/14 01:57:20;;;;;;;;;16.50;16.25;;;;;24.77;39.88;100556.47;2088262;28;46717;-62
2023/06/14 01:58:21;;;;;;;;;16.00;16.00;;;;;24.76;39.42;100569.19;2087975;28;46978;-60
2023/06/14 01:59:21;;;;;;;;;19.75;19.75;;;;;24.74;39.72;100560.31;2088138;28;45962;-61
2023/06/14 02:00:22;;;;;;;;;22.00;22.00;;;;;24.72;39.45;100559.59;2088194;28;46784;-62
2023/06/14 02:01:22;;;;;;;;;19.25;18.75;;;;;24.74;39.43;100570.31;2088145;28;46728;-61
2023/06/14 02:02:22;;;;;;;;;18.00;18.00;;;;;24.74;39.70;100564.88;2086267;28;46597;-60
2023/06/14 02:03:24;;;;;;;;;21.75;20.75;;;;;24.73;39.64;100560.44;2089494;28;46766;-60
2023/06/14 02:04:24;;;;;;;;;18.80;18.40;;;;;24.70;39.30;100558.84;2088277;28;46559;-62
2023/06/14 02:05:24;;;;;;;;;17.25;16.75;;;;;24.69;39.59;100565.28;2087221;28;45968;-60
2023/06/14 02:06:26;;;;;;;;;18.00;17.50;;;;;24.68;39.34;100559.97;2085913;28;45640;-63
2023/06/14 02:07:26;;;;;;;;;19.60;17.00;;;;;24.67;39.64;100566.41;2088176;28;46522;-61
2023/06/14 02:08:27;;;;;;;;;18.75;18.00;;;;;24.64;39.73;100570.19;2091643;28;46329;-63
2023/06/14 02:09:27;;;;;;;;;18.75;18.00;;;;;24.62;39.54;100570.34;2090252;28;46797;-61
2023/06/14 02:10:27;;;;;;;;;17.25;17.00;;;;;24.62;39.82;100566.75;2090011;28;46208;-61
2023/06/14 02:11:28;;;;;;;;;22.50;20.75;;;;;24.61;39.64;100559.59;2089084;28;46462;-61
2023/06/14 02:12:28;;;;;;;;;18.00;18.00;;;;;24.60;39.49;100572.31;2088277;28;45586;-61
2023/06/14 02:13:29;;;;;;;;;17.00;15.25;;;;;24.59;39.80;100567.88;2088672;28;46336;-61
2023/06/14 02:14:29;;;;;;;;;19.00;19.00;;;;;24.58;39.80;100570.72;2090744;28;46623;-61
2023/06/14 02:15:33;;;;;;;;;18.75;18.75;;;;;24.57;40.01;100571.72;2088382;28;46367;-61
2023/06/14 02:16:35;;;;;;;;;19.80;18.80;;;;;24.56;39.96;100570.84;2090248;28;46807;-62
2023/06/14 02:17:35;;;;;;;;;17.60;16.60;;;;;24.56;39.83;100575.41;2089264;28;46289;-60
2023/06/14 02:18:36;;;;;;;;;19.25;18.50;;;;;24.56;39.75;100576.28;2087928;28;46379;-60
2023/06/14 02:19:36;;;;;;;;;19.50;19.00;;;;;24.56;39.81;100572.72;2090991;28;46306;-62
2023/06/14 02:20:36;;;;;;;;;19.50;19.25;;;;;24.55;40.01;100577.28;2088517;28;46102;-61
2023/06/14 02:21:37;;;;;;;;;22.00;18.50;;;;;24.55;40.13;100570.97;2090358;28;46733;-60
2023/06/14 02:22:37;;;;;;;;;20.00;19.25;;;;;24.55;39.86;100576.41;2088962;28;46973;-61
2023/06/14 02:23:37;;;;;;;;;18.25;18.25;;;;;24.54;39.78;100578.25;2088164;28;46601;-60
2023/06/14 02:24:38;;;;;;;;;15.00;15.00;;;;;24.55;39.86;100576.41;2090474;28;46550;-59
2023/06/14 02:25:39;;;;;;;;;21.25;21.25;;;;;24.52;39.84;100573.94;2088729;28;46433;-60
2023/06/14 02:26:41;;;;;;;;;20.60;19.60;;;;;24.51;39.87;100578.50;2088146;28;46593;-61
2023/06/14 02:27:41;;;;;;;;;19.20;18.40;;;;;24.50;39.82;100578.63;2090292;28;45610;-60
2023/06/14 02:28:42;;;;;;;;;19.00;19.00;;;;;24.48;39.74;100584.19;2088474;28;46171;-58
2023/06/14 02:29:42;;;;;;;;;18.75;17.75;;;;;24.47;39.81;100579.75;2090087;28;46467;-59
2023/06/14 02:30:43;;;;;;;;;18.00;17.75;;;;;24.48;40.03;100586.03;2089923;28;46190;-58
2023/06/14 02:31:43;;;;;;;;;19.75;18.75;;;;;24.47;39.86;100584.31;2087265;28;46733;-61
2023/06/14 02:32:43;;;;;;;;;20.50;19.50;;;;;24.45;39.65;100581.72;2089816;28;46698;-60
2023/06/14 02:33:44;;;;;;;;;20.00;18.75;;;;;24.46;40.13;100582.59;2090257;28;47043;-61
2023/06/14 02:34:44;;;;;;;;;16.50;16.50;;;;;24.44;40.46;100582.72;2088746;28;46420;-61
2023/06/14 02:35:46;;;;;;;;;17.00;17.00;;;;;24.43;39.79;100575.56;2089764;28;46408;-60
2023/06/14 02:36:47;;;;;;;;;18.00;17.80;;;;;24.41;40.10;100582.97;2087501;28;46375;-61
2023/06/14 02:37:48;;;;;;;;;16.60;16.60;;;;;24.40;40.02;100577.69;2089884;28;46365;-60
2023/06/14 02:38:48;;;;;;;;;18.50;17.75;;;;;24.38;39.93;100585.03;2090149;28;46868;-61
2023/06/14 02:39:48;;;;;;;;;18.25;16.75;;;;;24.35;39.67;100578.03;2087907;28;46746;-60
2023/06/14 02:40:48;;;;;;;;;21.00;19.25;;;;;24.34;39.76;100576.31;2090536;28;46192;-61
2023/06/14 02:41:52;;;;;;;;;18.25;17.75;;;;;24.33;40.07;100586.28;2090386;28;46337;-60
2023/06/14 02:42:52;;;;;;;;;19.00;19.00;;;;;24.32;40.17;100579.16;2083235;28;46364;-58
2023/06/14 02:43:53;;;;;;;;;20.00;16.75;;;;;24.32;40.35;100587.28;2089660;28;46364;-61
2023/06/14 02:44:53;;;;;;;;;19.20;17.60;;;;;24.30;40.04;100588.41;2088601;28;46371;-61
2023/06/14 02:45:54;;;;;;;;;19.00;19.00;;;;;24.29;40.22;100586.66;2088714;28;46901;-62
2023/06/14 02:46:55;;;;;;;;;20.00;18.75;;;;;24.27;39.96;100589.47;2089749;28;46427;-61
2023/06/14 02:47:55;;;;;;;;;20.25;19.00;;;;;24.27;40.30;100592.19;2088109;28;46102;-60
2023/06/14 02:48:56;;;;;;;;;14.50;14.50;;;;;24.26;40.15;100586.88;2090000;28;46725;-60
2023/06/14 02:49:57;;;;;;;;;17.50;17.50;;;;;24.25;40.11;100586.00;2090266;28;46088;-60
2023/06/14 02:50:57;;;;;;;;;19.00;18.25;;;;;24.23;40.37;100590.69;2087657;28;46824;-60
2023/06/14 02:51:57;;;;;;;;;20.50;20.50;;;;;24.23;40.46;100590.69;2089849;28;46473;-59
2023/06/14 02:52:58;;;;;;;;;19.00;19.00;;;;;24.22;40.61;100588.13;2088478;28;45958;-61
2023/06/14 02:53:58;;;;;;;;;16.00;16.00;;;;;24.22;40.66;100588.97;2089169;28;46613;-59
2023/06/14 02:54:59;;;;;;;;;17.00;17.00;;;;;24.20;40.73;100588.25;2090106;28;45432;-60
2023/06/14 02:55:59;;;;;;;;;18.00;18.00;;;;;24.21;40.62;100589.09;2087675;28;46116;-61
2023/06/14 02:56:59;;;;;;;;;20.25;20.25;;;;;24.21;40.96;100591.81;2088091;28;46809;-60
2023/06/14 02:58:00;;;;;;;;;19.00;19.00;;;;;24.18;40.75;100590.22;2088963;28;46475;-60
2023/06/14 02:59:00;;;;;;;;;18.50;18.50;;;;;24.19;40.66;100593.78;2088453;28;46043;-60
2023/06/14 03:00:00;;;;;;;;;19.50;19.25;;;;;24.18;40.74;100592.06;2088924;28;46848;-60
2023/06/14 03:01:03;;;;;;;;;22.50;22.25;;;;;24.16;40.75;100589.47;2087820;28;46566;-60
2023/06/14 03:02:04;;;;;;;;;29.20;28.40;;;;;24.15;40.55;100595.03;2087800;28;46413;-61
2023/06/14 03:03:04;;;;;;;;;23.75;22.00;;;;;24.14;40.78;100593.28;2087044;28;47035;-61
2023/06/14 03:04:05;;;;;;;;;21.00;20.25;;;;;24.12;41.16;100593.41;2087389;28;45804;-60
2023/06/14 03:05:07;;;;;;;;;22.25;22.25;;;;;24.12;41.00;100589.84;2087681;28;46738;-61
2023/06/14 03:06:08;;;;;;;;;19.80;19.80;;;;;24.11;41.05;100591.69;2087622;28;46434;-60
2023/06/14 03:07:12;;;;;;;;;19.60;19.60;;;;;24.10;40.83;100591.81;2087841;28;46836;-61
2023/06/14 03:08:16;;;;;;;;;18.20;17.20;;;;;24.08;40.77;100597.34;2090372;28;46390;-60
2023/06/14 03:09:17;;;;;;;;;19.80;17.80;;;;;24.07;40.54;100598.34;2087686;28;46548;-61
2023/06/14 03:10:17;;;;;;;;;23.50;19.25;;;;;24.07;40.91;100598.34;2090058;28;46377;-59
2023/06/14 03:11:20;;;;;;;;;18.25;18.25;;;;;24.05;40.46;100597.59;2089293;28;46231;-61
2023/06/14 03:12:20;;;;;;;;;18.20;18.20;;;;;24.04;40.71;100602.16;2086985;28;46389;-60
2023/06/14 03:13:21;;;;;;;;;20.50;19.75;;;;;24.04;40.92;100595.88;2088288;28;46490;-61
2023/06/14 03:14:22;;;;;;;;;19.40;18.60;;;;;24.02;40.93;100597.88;2087724;28;46135;-59
2023/06/14 03:15:24;;;;;;;;;20.00;18.50;;;;;24.01;40.97;100606.94;2087345;28;46314;-59
2023/06/14 03:16:24;;;;;;;;;19.00;18.20;;;;;23.99;41.06;100601.66;2087034;28;46039;-58
2023/06/14 03:17:29;;;;;;;;;16.75;16.25;;;;;23.98;40.55;100601.78;2088978;28;46296;-61
2023/06/14 03:18:30;;;;;;;;;17.20;17.20;;;;;23.97;41.09;100602.78;2089765;28;46925;-59
2023/06/14 03:19:31;;;;;;;;;18.40;18.40;;;;;23.96;41.07;100603.75;2091046;28;46773;-59
2023/06/14 03:20:32;;;;;;;;;19.25;19.25;;;;;23.95;41.26;100611.03;2097909;28;46780;-62
2023/06/14 03:21:34;;;;;;;;;19.00;18.60;;;;;23.95;41.26;100602.91;2092042;28;46933;-61
2023/06/14 03:22:35;;;;;;;;;19.40;18.80;;;;;23.94;41.34;100603.03;2089216;28;46341;-61
2023/06/14 03:23:35;;;;;;;;;20.75;20.75;;;;;23.94;41.31;100605.72;2090819;28;46622;-59
2023/06/14 03:24:36;;;;;;;;;21.00;20.00;;;;;23.92;41.06;100608.56;2090438;28;46880;-61
2023/06/14 03:25:38;;;;;;;;;19.20;18.20;;;;;23.91;41.20;100612.25;2089090;28;47008;-61
2023/06/14 03:26:38;;;;;;;;;22.20;22.00;;;;;23.91;41.47;100608.69;2084820;28;46063;-62
2023/06/14 03:27:39;;;;;;;;;19.75;19.25;;;;;23.90;41.28;100621.38;2076921;28;46526;-60
2023/06/14 03:28:40;;;;;;;;;22.00;20.00;;;;;23.89;41.54;100618.78;2088640;28;46319;-61
2023/06/14 03:29:40;;;;;;;;;19.40;18.00;;;;;23.88;41.51;100619.75;2105079;28;45994;-61
2023/06/14 03:30:40;;;;;;;;;21.75;18.75;;;;;23.85;41.16;100618.16;2088127;28;46680;-61
2023/06/14 03:32:01;;;;;;;;;20.25;19.50;;;;;23.84;41.83;100621.84;2079785;28;46760;-59
2023/06/14 03:33:03;;;;;;;;;17.40;17.40;;;;;23.83;41.58;100622.84;2087575;28;46742;-61
2023/06/14 03:34:03;;;;;;;;;20.20;19.40;;;;;23.83;41.43;100620.13;2089339;28;45899;-62
2023/06/14 03:35:04;;;;;;;;;22.50;22.50;;;;;23.81;41.26;100627.50;2088671;28;47263;-62
2023/06/14 03:36:05;;;;;;;;;23.75;20.25;;;;;23.80;41.59;100625.78;2088626;28;45510;-62
2023/06/14 03:37:05;;;;;;;;;19.60;19.00;;;;;23.77;41.46;100621.47;2089337;28;46469;-63
2023/06/14 03:38:06;;;;;;;;;19.50;19.50;;;;;23.76;41.76;100622.47;2089201;28;46401;-59
2023/06/14 03:39:06;;;;;;;;;21.00;21.00;;;;;23.76;41.57;100624.31;2088867;28;46399;-62
2023/06/14 03:40:07;;;;;;;;;24.75;22.75;;;;;23.75;41.67;100626.13;2088044;28;45941;-61
2023/06/14 03:41:07;;;;;;;;;18.25;17.50;;;;;23.75;42.67;100625.28;2088242;28;46800;-60
2023/06/14 03:42:07;;;;;;;;;21.00;20.00;;;;;23.75;42.62;100623.41;2079530;28;46658;-61
2023/06/14 03:43:08;;;;;;;;;22.25;20.75;;;;;23.78;42.53;100620.50;2080040;28;45941;-61
2023/06/14 03:44:08;;;;;;;;;18.75;18.00;;;;;23.81;42.50;100624.81;2088292;28;46122;-61
2023/06/14 03:45:09;;;;;;;;;16.50;16.50;;;;;23.84;42.72;100629.13;2088085;28;45958;-62
2023/06/14 03:46:09;;;;;;;;;18.50;17.25;;;;;23.87;42.38;100628.88;2088218;28;46927;-56
2023/06/14 03:47:09;;;;;;;;;21.50;21.50;;;;;23.90;42.57;100632.22;2087975;28;46431;-56
2023/06/14 03:48:10;;;;;;;;;17.75;17.50;;;;;23.95;42.81;100630.00;2088658;28;46305;-58
2023/06/14 03:49:11;;;;;;;;;19.75;17.25;;;;;24.04;42.73;100634.69;2079530;28;46824;-59
2023/06/14 03:50:12;;;;;;;;;17.20;16.60;;;;;24.13;42.69;100632.22;2077904;28;46581;-59
2023/06/14 03:51:12;;;;;;;;;17.25;17.25;;;;;24.18;42.63;100630.88;2087172;28;46508;-58
2023/06/14 03:52:14;;;;;;;;;18.00;18.00;;;;;24.24;42.40;100635.81;2086464;28;46993;-59
2023/06/14 03:53:14;;;;;;;;;17.20;17.20;;;;;24.30;42.34;100635.38;2086983;28;45672;-59
2023/06/14 03:54:15;;;;;;;;;16.50;16.50;;;;;24.35;41.66;100629.56;2087087;28;46240;-58
2023/06/14 03:55:16;;;;;;;;;17.00;17.00;;;;;24.40;42.05;100637.34;2086787;28;46944;-58
2023/06/14 03:56:16;;;;;;;;;18.60;18.60;;;;;24.45;42.08;100635.97;2086722;28;45630;-57
2023/06/14 03:57:17;;;;;;;;;22.50;21.25;;;;;24.50;41.83;100632.88;2086988;28;46195;-57
2023/06/14 03:58:17;;;;;;;;;21.50;19.25;;;;;24.54;41.77;100639.81;2095294;28;45979;-59
2023/06/14 03:59:17;;;;;;;;;18.50;17.75;;;;;24.57;41.88;100634.97;2094818;28;46484;-58
2023/06/14 04:00:18;;;;;;;;;18.75;18.75;;;;;24.60;41.50;100639.28;2078662;28;45873;-57
2023/06/14 04:01:18;;;;;;;;;18.00;18.00;;;;;24.61;41.59;100633.72;2081234;28;45767;-58
2023/06/14 04:02:19;;;;;;;;;14.25;11.00;;;;;24.64;41.36;100630.75;2075106;28;46439;-57
2023/06/14 04:03:24;;;;;;;;;19.25;17.25;;;;;24.67;41.75;100632.38;2088040;28;46250;-58
2023/06/14 04:04:28;;;;;;;;;18.60;18.60;;;;;24.67;41.29;100636.94;2079213;28;46599;-59
2023/06/14 04:05:29;;;;;;;;;20.40;20.40;;;;;24.68;41.09;100638.69;2079068;28;46788;-59
2023/06/14 04:06:32;;;;;;;;;21.50;21.50;;;;;24.66;41.11;100636.09;2078482;28;46108;-59
2023/06/14 04:07:39;;;;;;;;;21.00;19.20;;;;;24.68;40.99;100634.09;2086132;28;46362;-57
2023/06/14 04:08:41;;;;;;;;;17.40;17.40;;;;;24.70;40.81;100634.84;2078862;28;46171;-59
2023/06/14 04:09:41;;;;;;;;;19.20;18.40;;;;;24.72;41.04;100637.44;2071138;28;46604;-59
2023/06/14 04:10:41;;;;;;;;;16.50;16.50;;;;;24.73;41.20;100637.28;2070392;28;46483;-59
2023/06/14 04:11:42;;;;;;;;;19.75;19.50;;;;;24.74;41.02;100635.44;2081294;28;46255;-56
2023/06/14 04:12:42;;;;;;;;;18.75;17.75;;;;;24.78;41.13;100637.78;2087361;28;46174;-58
2023/06/14 04:13:44;;;;;;;;;20.00;19.50;;;;;24.82;41.03;100638.41;2094232;28;46604;-57
2023/06/14 04:14:44;;;;;;;;;23.00;21.40;;;;;24.86;40.85;100638.00;2095055;28;46531;-57
2023/06/14 04:15:45;;;;;;;;;19.50;19.50;;;;;24.89;40.84;100636.88;2087855;28;46648;-59
2023/06/14 04:16:46;;;;;;;;;19.60;18.60;;;;;24.90;40.65;100636.78;2086938;28;46375;-58
2023/06/14 04:17:47;;;;;;;;;17.40;17.40;;;;;24.93;40.43;100643.81;2086910;28;46469;-56
2023/06/14 04:18:48;;;;;;;;;19.75;18.75;;;;;24.93;40.51;100644.66;2086844;28;46910;-58
2023/06/14 04:19:48;;;;;;;;;17.50;17.50;;;;;24.96;40.94;100643.53;2087343;28;46456;-56
2023/06/14 04:20:49;;;;;;;;;22.25;20.75;;;;;24.99;40.32;100640.56;2087616;28;45842;-59
2023/06/14 04:21:50;;;;;;;;;17.00;15.80;;;;;25.00;40.48;100644.16;2086780;28;46534;-56
2023/06/14 04:22:51;;;;;;;;;18.50;17.50;;;;;25.01;40.44;100641.34;2087138;28;46404;-59
2023/06/14 04:23:52;;;;;;;;;17.60;16.80;;;;;25.04;40.29;100640.25;2087232;28;46700;-57
2023/06/14 04:24:53;;;;;;;;;21.40;21.40;;;;;25.03;40.32;100639.38;2087492;28;46859;-58
2023/06/14 04:25:53;;;;;;;;;20.00;19.25;;;;;25.05;40.07;100644.69;2087897;28;46664;-57
2023/06/14 04:26:54;;;;;;;;;19.75;18.00;;;;;25.05;40.08;100642.81;2087626;28;47219;-56
2023/06/14 04:27:54;;;;;;;;;18.00;17.25;;;;;25.07;40.17;100661.69;2087129;28;47348;-58
2023/06/14 04:28:56;;;;;;;;;19.50;17.75;;;;;25.06;40.28;100649.97;2086612;28;45415;-57
2023/06/14 04:29:57;;;;;;;;;20.40;20.00;;;;;25.06;40.06;100654.53;2087452;28;46898;-57
2023/06/14 04:31:01;;;;;;;;;18.60;18.60;;;;;25.07;40.29;100650.84;2086993;28;46195;-59
2023/06/14 04:32:01;;;;;;;;;18.00;18.00;;;;;25.08;40.50;100650.72;2087481;28;45807;-56
2023/06/14 04:33:05;;;;;;;;;18.75;18.75;;;;;25.11;40.24;100657.72;2095812;28;46961;-58
2023/06/14 04:34:05;;;;;;;;;22.40;20.60;;;;;25.12;40.48;100652.16;2087473;28;46223;-60
2023/06/14 04:35:07;;;;;;;;;18.75;18.75;;;;;25.13;39.97;100659.31;2087777;28;46903;-57
2023/06/14 04:36:07;;;;;;;;;18.00;18.00;;;;;25.13;40.21;100664.75;2087567;28;46642;-60
2023/06/14 04:37:09;;;;;;;;;20.75;19.50;;;;;25.13;40.10;100661.16;2087651;28;47168;-59
2023/06/14 04:38:09;;;;;;;;;17.20;17.20;;;;;25.11;39.97;100658.59;2087878;28;46319;-61
2023/06/14 04:39:10;;;;;;;;;20.50;19.75;;;;;25.12;40.47;100662.16;2087285;28;46275;-60
2023/06/14 04:40:10;;;;;;;;;19.25;18.00;;;;;25.13;39.93;100663.88;2086861;28;46736;-60